Terminal Aerodrome Forecast
Issued by NWS

Home | Current Version | Previous Version | Text Only | Print | Product List | Glossary Off
Versions: 1 2 3 4 5 6 7 8 9 10 11 12 13 14 15 16 17 18 19 20 21 22 23 24 25

876
FTUS43 KLOT 102057 AAA
TAFORD
TAF AMD
KORD 102057Z 1021/1124 31012KT P6SM SCT035
     FM110000 32009KT P6SM SCT120 BKN250
     FM112100 25006KT P6SM BKN180=

USA.gov is the U.S. government's official web portal to all federal, state and local government web resources and services.